createdAt,value
2018-10-09T00:00:42.000Z,97.63
2018-10-09T00:03:12.180Z,97.78
2018-10-09T00:05:42.303Z,97.82
2018-10-09T00:08:12.401Z,98.28
2018-10-09T00:10:42.794Z,98.53
2018-10-09T00:13:12.841Z,98.16
2018-10-09T00:15:44.228Z,98.33
2018-10-09T00:18:15.620Z,98.17
2018-10-09T00:20:45.584Z,98.02
2018-10-09T00:23:15.649Z,98.05
2018-10-09T00:25:45.617Z,97.01
2018-10-09T00:28:15.960Z,97.23
2018-10-09T00:30:45.959Z,97.35
2018-10-09T00:33:17.325Z,97.54
2018-10-09T00:35:47.479Z,97.64
2018-10-09T00:38:17.549Z,98.08
2018-10-09T00:40:47.963Z,98.16
2018-10-09T00:43:17.950Z,98.65
2018-10-09T00:45:48.179Z,98.66
2018-10-09T00:48:18.589Z,98.08
2018-10-09T00:50:48.764Z,98.23
2018-10-09T00:53:18.940Z,97.97
2018-10-09T00:55:49.058Z,97.73
2018-10-09T00:58:19.708Z,97.47
2018-10-09T01:00:49.875Z,97.90
2018-10-09T01:03:20.212Z,97.85
2018-10-09T01:05:50.250Z,97.89
2018-10-09T01:08:20.305Z,97.52
2018-10-09T01:10:50.442Z,98.04
2018-10-09T01:13:20.472Z,98.78
2018-10-09T01:15:51.957Z,98.64
2018-10-09T01:18:22.060Z,99.09
2018-10-09T01:20:52.299Z,99.31
2018-10-09T01:23:22.509Z,99.09
2018-10-09T01:25:52.560Z,98.54
2018-10-09T01:28:22.919Z,98.70
2018-10-09T01:30:53.021Z,98.49
2018-10-09T01:33:23.099Z,97.87
2018-10-09T01:35:53.158Z,97.86
2018-10-09T01:38:23.204Z,97.92
2018-10-09T01:40:53.224Z,97.70
2018-10-09T01:43:30.340Z,98.24
2018-10-09T01:46:00.433Z,98.37
2018-10-09T01:48:31.084Z,99.06
2018-10-09T01:51:01.433Z,99.17
2018-10-09T01:53:31.549Z,99.87
2018-10-09T01:56:01.683Z,100.00
2018-10-09T01:58:31.687Z,99.66
2018-10-09T02:01:03.053Z,99.27
2018-10-09T02:03:33.114Z,99.27
2018-10-09T02:06:03.147Z,99.38
2018-10-09T02:08:33.223Z,99.15
2018-10-09T02:11:03.363Z,99.38
2018-10-09T02:13:37.323Z,99.35
2018-10-09T02:16:07.810Z,99.31
2018-10-09T02:18:37.972Z,99.49
2018-10-09T02:21:08.354Z,98.90
2018-10-09T02:23:38.327Z,99.42
2018-10-09T02:26:08.599Z,98.82
2018-10-09T02:28:38.988Z,98.60
2018-10-09T02:31:09.243Z,98.67
2018-10-09T02:33:39.301Z,98.76
2018-10-09T02:36:09.432Z,98.86
2018-10-09T02:38:39.433Z,99.12
2018-10-09T02:41:09.415Z,99.06
2018-10-09T02:43:39.740Z,99.27
2018-10-09T02:46:09.811Z,99.26
2018-10-09T02:48:39.911Z,99.48
2018-10-09T02:51:10.104Z,99.96
2018-10-09T02:53:40.229Z,100.00
2018-10-09T02:56:10.343Z,99.95
2018-10-09T02:58:40.712Z,99.98
2018-10-09T03:01:10.848Z,100.00
2018-10-09T03:03:40.810Z,100.00
2018-10-09T03:06:11.005Z,100.00
2018-10-09T03:08:41.584Z,100.00
2018-10-09T03:11:11.831Z,100.00
2018-10-09T03:13:45.485Z,100.00
2018-10-09T03:16:15.801Z,100.00
2018-10-09T03:18:45.840Z,100.00
2018-10-09T03:21:15.890Z,100.00
2018-10-09T03:23:46.161Z,100.00
2018-10-09T03:26:16.178Z,100.00
2018-10-09T03:28:46.250Z,100.00
2018-10-09T03:31:16.478Z,100.00
2018-10-09T03:33:46.597Z,100.00
2018-10-09T03:36:16.696Z,100.00
2018-10-09T03:38:47.000Z,100.00
2018-10-09T03:41:17.020Z,100.00
2018-10-09T03:43:47.029Z,99.93
2018-10-09T03:46:17.240Z,100.00
2018-10-09T03:48:48.361Z,100.00
2018-10-09T03:51:24.228Z,100.00
2018-10-09T03:53:55.661Z,100.00
2018-10-09T03:56:25.680Z,100.00
2018-10-09T03:58:55.735Z,100.00
2018-10-09T04:01:25.756Z,99.63
2018-10-09T04:03:56.263Z,99.95
2018-10-09T04:06:26.469Z,100.00
2018-10-09T04:08:56.511Z,100.00
2018-10-09T04:11:26.638Z,100.00
2018-10-09T04:13:58.179Z,100.00
2018-10-09T04:16:28.376Z,100.00
2018-10-09T04:18:58.713Z,100.00
2018-10-09T04:21:29.135Z,99.94
2018-10-09T04:23:59.204Z,99.34
2018-10-09T04:26:29.343Z,99.34
2018-10-09T04:28:59.796Z,99.77
2018-10-09T04:31:29.930Z,99.98
2018-10-09T04:34:00.043Z,100.00
2018-10-09T04:36:30.109Z,100.00
2018-10-09T04:39:00.275Z,100.00
2018-10-09T04:41:31.364Z,100.00
2018-10-09T04:44:02.750Z,99.93
2018-10-09T04:46:32.911Z,99.87
2018-10-09T04:49:02.993Z,99.92
2018-10-09T04:51:33.448Z,100.00
2018-10-09T04:54:04.604Z,100.00
2018-10-09T04:56:34.739Z,100.00
2018-10-09T04:59:04.899Z,99.82
2018-10-09T05:01:35.060Z,98.47
2018-10-09T05:04:05.228Z,97.15
2018-10-09T05:06:35.339Z,96.78
2018-10-09T05:09:08.723Z,96.59
2018-10-09T05:11:38.838Z,96.75
2018-10-09T05:14:09.044Z,96.01
2018-10-09T05:16:39.236Z,96.80
2018-10-09T05:19:09.289Z,97.23
2018-10-09T05:21:39.684Z,96.77
2018-10-09T05:24:09.872Z,96.30
2018-10-09T05:26:39.937Z,96.57
2018-10-09T05:29:09.991Z,96.86
2018-10-09T05:31:40.174Z,97.37
2018-10-09T05:34:10.341Z,97.58
2018-10-09T05:36:41.848Z,97.88
2018-10-09T05:39:12.092Z,97.66
2018-10-09T05:41:42.208Z,98.12
2018-10-09T05:44:12.381Z,98.35
2018-10-09T05:46:45.282Z,98.50
2018-10-09T05:49:15.625Z,98.92
2018-10-09T05:51:50.052Z,98.06
2018-10-09T05:54:20.368Z,97.92
2018-10-09T05:56:50.632Z,96.99
2018-10-09T05:59:21.019Z,96.63
2018-10-09T06:01:55.030Z,96.92
2018-10-09T06:04:25.180Z,95.98
2018-10-09T06:06:55.320Z,95.55
2018-10-09T06:09:25.326Z,95.59
2018-10-09T06:17:54.272Z,94.30
2018-10-09T06:20:25.774Z,94.80
2018-10-09T06:22:56.044Z,94.89
2018-10-09T06:25:26.096Z,95.23
2018-10-09T06:27:56.294Z,94.35
2018-10-09T06:30:26.336Z,94.30
2018-10-09T06:32:56.529Z,94.42
2018-10-09T06:35:27.212Z,94.68
2018-10-09T06:37:57.270Z,94.64
2018-10-09T06:40:27.647Z,94.39
2018-10-09T06:42:58.141Z,94.20
2018-10-09T06:45:28.364Z,93.53
2018-10-09T06:48:12.048Z,92.88
2018-10-09T06:50:42.071Z,92.69
2018-10-09T06:53:12.524Z,93.04
2018-10-09T06:55:42.977Z,92.85
2018-10-09T06:58:12.943Z,92.79
2018-10-09T07:00:43.224Z,93.03
2018-10-09T07:03:15.592Z,93.67
2018-10-09T07:05:45.581Z,92.88
2018-10-09T07:08:15.627Z,93.21
2018-10-09T07:10:45.922Z,93.29
2018-10-09T07:13:15.947Z,93.33
2018-10-09T07:15:46.789Z,93.72
2018-10-09T07:18:17.304Z,93.13
2018-10-09T07:20:47.532Z,92.80
2018-10-09T07:23:17.543Z,92.67
2018-10-09T07:25:47.644Z,91.96
2018-10-09T07:28:18.084Z,91.97
2018-10-09T07:30:48.188Z,91.36
2018-10-09T07:33:19.771Z,91.47
2018-10-09T07:35:49.790Z,91.12
2018-10-09T07:38:19.891Z,91.38
2018-10-09T07:40:50.231Z,90.78
2018-10-09T07:43:20.734Z,90.51
2018-10-09T07:45:51.036Z,90.31
2018-10-09T07:48:21.202Z,89.54
2018-10-09T07:50:59.305Z,88.89
2018-10-09T07:53:29.338Z,88.66
2018-10-09T07:55:59.699Z,87.77
2018-10-09T07:58:30.272Z,88.34
2018-10-09T08:01:00.421Z,87.42
2018-10-09T08:03:30.880Z,87.26
2018-10-09T08:06:01.000Z,86.50
2018-10-09T08:08:31.128Z,86.35
2018-10-09T08:11:01.347Z,86.68
2018-10-09T08:13:32.661Z,86.63
2018-10-09T08:16:02.712Z,86.13
2018-10-09T08:18:34.286Z,85.53
2018-10-09T08:21:04.505Z,83.58
2018-10-09T08:23:34.717Z,80.15
2018-10-09T08:26:06.225Z,80.99
2018-10-09T08:28:37.664Z,79.44
2018-10-09T08:31:07.836Z,79.15
2018-10-09T08:33:38.210Z,78.85
2018-10-09T08:36:08.356Z,79.12
2018-10-09T08:38:39.263Z,77.93
2018-10-09T08:41:09.384Z,78.16
2018-10-09T08:43:39.479Z,76.54
2018-10-09T08:46:09.589Z,75.11
2018-10-09T08:48:39.736Z,73.30
2018-10-09T08:51:10.120Z,70.25
2018-10-09T08:53:40.233Z,67.54
2018-10-09T08:56:10.257Z,66.92
2018-10-09T08:58:41.249Z,61.59
2018-10-09T09:01:11.718Z,61.08
2018-10-09T09:03:43.099Z,60.47
2018-10-09T09:06:13.953Z,60.03
2018-10-09T09:08:46.392Z,60.01
2018-10-09T09:11:16.685Z,59.71
2018-10-09T09:13:48.475Z,57.65
2018-10-09T09:18:41.004Z,55.33
2018-10-09T09:21:11.186Z,54.16
2018-10-09T09:23:41.469Z,55.97
2018-10-09T09:26:11.518Z,54.56
2018-10-09T09:28:41.541Z,55.11
2018-10-09T09:31:11.661Z,54.44
2018-10-09T09:33:41.736Z,53.84
2018-10-09T09:36:11.876Z,55.71
2018-10-09T09:38:41.965Z,56.29
2018-10-09T09:41:12.509Z,56.48
2018-10-09T09:43:42.575Z,56.17
2018-10-09T09:46:12.618Z,55.65
2018-10-09T09:48:42.876Z,55.72
2018-10-09T09:51:14.537Z,55.86
2018-10-09T09:53:44.707Z,56.40
2018-10-09T09:56:16.310Z,59.20
2018-10-09T09:58:47.200Z,59.25
2018-10-09T10:01:17.466Z,58.35
2018-10-09T10:03:47.554Z,60.51
2018-10-09T10:06:17.801Z,61.24
2018-10-09T10:08:48.184Z,61.70
2018-10-09T10:11:18.901Z,61.54
2018-10-09T10:13:48.976Z,62.03
2018-10-09T10:16:19.582Z,64.03
2018-10-09T10:18:49.936Z,63.96
2018-10-09T10:21:20.481Z,63.50
2018-10-09T10:23:50.729Z,64.20
2018-10-09T10:26:21.077Z,64.27
2018-10-09T10:28:51.361Z,65.91
2018-10-09T10:31:21.465Z,65.74
2018-10-09T10:33:53.021Z,62.65
2018-10-09T10:36:23.543Z,61.58
2018-10-09T10:38:53.585Z,61.84
2018-10-09T10:41:24.168Z,61.85
2018-10-09T10:43:54.227Z,64.04
2018-10-09T10:46:28.676Z,62.53
2018-10-09T10:49:05.096Z,61.96
2018-10-09T10:51:35.470Z,61.61
2018-10-09T10:54:09.720Z,61.81
2018-10-09T10:56:40.438Z,60.84
2018-10-09T10:59:10.464Z,59.43
2018-10-09T11:01:40.637Z,59.78
2018-10-09T11:04:10.789Z,58.27
2018-10-09T11:06:40.976Z,57.74
2018-10-09T11:09:13.443Z,57.93
2018-10-09T11:11:43.547Z,60.01
2018-10-09T11:14:13.652Z,57.31
2018-10-09T11:16:43.673Z,57.72
2018-10-09T11:19:13.848Z,58.70
2018-10-09T11:21:43.926Z,59.22
2018-10-09T11:24:14.188Z,59.53
2018-10-09T11:26:44.635Z,58.65
2018-10-09T11:29:15.456Z,58.05
2018-10-09T11:31:45.477Z,57.93
2018-10-09T11:34:16.905Z,58.20
2018-10-09T11:36:47.235Z,58.15
2018-10-09T11:39:17.408Z,58.34
2018-10-09T11:41:47.674Z,58.66
2018-10-09T11:44:18.079Z,60.97
2018-10-09T11:46:48.150Z,58.69
2018-10-09T11:49:19.115Z,57.85
2018-10-09T11:51:49.575Z,57.79
2018-10-09T11:54:19.619Z,59.53
2018-10-09T11:56:49.721Z,58.60
2018-10-09T11:59:20.671Z,58.22
2018-10-09T12:01:51.001Z,57.15
2018-10-09T12:04:21.351Z,56.40
2018-10-09T12:06:55.122Z,56.28
2018-10-09T12:09:25.665Z,56.55
2018-10-09T12:11:55.772Z,56.34
2018-10-09T12:14:25.884Z,55.97
2018-10-09T12:16:57.836Z,54.79
2018-10-09T12:19:27.873Z,55.36
2018-10-09T12:21:57.944Z,56.02
2018-10-09T12:24:28.112Z,55.05
2018-10-09T12:26:58.229Z,53.90
2018-10-09T12:29:28.660Z,53.49
2018-10-09T12:32:00.040Z,54.21
2018-10-09T12:34:30.137Z,54.92
2018-10-09T12:37:00.351Z,54.22
2018-10-09T12:39:30.824Z,53.39
2018-10-09T12:42:00.928Z,52.15
2018-10-09T12:44:30.995Z,52.99
2018-10-09T12:47:01.470Z,53.01
2018-10-09T12:49:31.508Z,52.49
2018-10-09T12:52:01.644Z,53.13
2018-10-09T12:54:34.193Z,52.60
2018-10-09T12:57:04.602Z,52.42
2018-10-09T12:59:34.736Z,52.38
2018-10-09T13:02:05.126Z,51.51
2018-10-09T13:04:35.536Z,52.28
2018-10-09T13:07:05.674Z,52.24
2018-10-09T13:09:35.848Z,52.84
2018-10-09T13:12:07.920Z,53.35
2018-10-09T13:14:38.267Z,53.30
2018-10-09T13:17:08.510Z,52.26
2018-10-09T13:19:38.691Z,52.94
2018-10-09T13:22:09.503Z,52.86
2018-10-09T13:24:40.553Z,53.66
2018-10-09T13:27:11.583Z,53.29
2018-10-09T13:29:41.980Z,54.04
2018-10-09T13:32:12.299Z,54.87
2018-10-09T13:34:42.520Z,53.41
2018-10-09T13:37:12.665Z,54.03
2018-10-09T13:39:42.753Z,54.78
2018-10-09T13:42:12.816Z,55.37
2018-10-09T13:44:42.894Z,56.29
2018-10-09T13:47:13.614Z,56.04
2018-10-09T13:49:43.591Z,55.41
2018-10-09T13:52:16.225Z,53.66
2018-10-09T13:54:46.261Z,53.46
2018-10-09T13:57:16.576Z,50.72
2018-10-09T13:59:48.014Z,50.38
2018-10-09T14:02:18.086Z,51.72
2018-10-09T14:04:48.197Z,50.11
2018-10-09T14:07:19.713Z,49.91
2018-10-09T14:09:49.948Z,48.99
2018-10-09T14:12:20.077Z,48.91
2018-10-09T14:14:50.317Z,47.49
2018-10-09T14:17:20.399Z,47.77
2018-10-09T14:19:51.090Z,46.73
2018-10-09T14:22:21.306Z,45.00
2018-10-09T14:24:51.396Z,43.17
2018-10-09T14:27:21.661Z,43.27
2018-10-09T14:29:51.868Z,43.81
2018-10-09T14:32:22.256Z,45.62
2018-10-09T14:34:52.401Z,48.14
2018-10-09T14:37:22.755Z,48.41
2018-10-09T14:39:57.634Z,49.28
2018-10-09T14:42:27.859Z,48.75
2018-10-09T14:44:57.907Z,49.87
2018-10-09T14:47:28.380Z,46.79
2018-10-09T14:49:59.263Z,42.80
2018-10-09T14:55:13.200Z,39.59
2018-10-09T14:57:43.325Z,40.00
2018-10-09T15:00:13.487Z,40.28
2018-10-09T15:02:43.797Z,39.90
2018-10-09T15:05:14.055Z,42.86
2018-10-09T15:07:45.205Z,45.11
2018-10-09T15:10:19.884Z,46.80
2018-10-09T15:12:50.324Z,49.27
2018-10-09T15:15:20.449Z,50.16
2018-10-09T15:17:50.720Z,51.39
2018-10-09T15:20:26.338Z,52.47
2018-10-09T15:22:57.625Z,55.01
2018-10-09T15:25:27.741Z,54.85
2018-10-09T15:27:58.077Z,56.67
2018-10-09T15:30:28.392Z,56.95
2018-10-09T15:32:58.452Z,57.94
2018-10-09T15:35:28.626Z,59.28
2018-10-09T15:38:00.297Z,60.31
2018-10-09T15:40:30.512Z,61.20
2018-10-09T15:43:00.776Z,62.96
2018-10-09T15:45:33.253Z,64.12
2018-10-09T15:48:03.356Z,64.89
2018-10-09T15:50:33.588Z,65.26
2018-10-09T15:53:04.225Z,65.75
2018-10-09T15:55:34.700Z,65.16
2018-10-09T15:58:04.808Z,63.45
2018-10-09T16:00:36.892Z,63.86
2018-10-09T16:03:08.049Z,63.74
2018-10-09T16:05:38.546Z,64.33
2018-10-09T16:08:08.823Z,62.91
2018-10-09T16:10:39.654Z,63.90
2018-10-09T16:13:10.183Z,63.88
2018-10-09T16:15:40.299Z,65.28
2018-10-09T16:18:10.496Z,65.00
2018-10-09T16:20:40.960Z,64.64
2018-10-09T16:23:11.213Z,64.81
2018-10-09T16:28:11.061Z,65.15
2018-10-09T16:30:41.418Z,65.02
2018-10-09T16:33:12.088Z,66.07
2018-10-09T16:35:42.336Z,66.07
2018-10-09T16:38:13.090Z,66.70
2018-10-09T16:40:43.247Z,67.39
2018-10-09T16:43:14.147Z,67.41
2018-10-09T16:45:44.343Z,68.38
2018-10-09T16:48:14.507Z,68.79
2018-10-09T16:50:44.999Z,69.15
2018-10-09T16:53:16.423Z,69.39
2018-10-09T16:55:47.142Z,70.16
2018-10-09T16:58:17.757Z,70.42
2018-10-09T17:00:47.930Z,70.71
2018-10-09T17:03:19.273Z,71.60
2018-10-09T17:05:51.794Z,71.92
2018-10-09T17:08:22.185Z,72.85
2018-10-09T17:10:52.606Z,73.23
2018-10-09T17:13:23.210Z,73.44
2018-10-09T17:15:53.461Z,73.62
2018-10-09T17:18:24.097Z,73.54
2018-10-09T17:20:55.303Z,74.19
2018-10-09T17:23:25.752Z,74.57
2018-10-09T17:25:56.520Z,74.02
2018-10-09T17:28:28.190Z,73.25
2018-10-09T17:30:58.608Z,73.56
2018-10-09T17:33:29.965Z,73.98
2018-10-09T17:36:01.942Z,75.17
2018-10-09T17:38:32.196Z,75.61
2018-10-09T17:41:03.157Z,76.17
2018-10-09T17:43:33.767Z,76.15
2018-10-09T17:46:04.315Z,76.00
2018-10-09T17:48:34.468Z,76.98
2018-10-09T17:51:08.147Z,77.04
2018-10-09T17:53:38.817Z,77.16
2018-10-09T17:56:10.960Z,77.34
2018-10-09T17:58:41.124Z,77.17
2018-10-09T18:01:11.452Z,77.89
2018-10-09T18:03:41.529Z,78.11
2018-10-09T18:06:11.696Z,78.53
2018-10-09T18:08:43.076Z,79.12
2018-10-09T18:11:13.328Z,79.43
2018-10-09T18:13:44.051Z,79.75
2018-10-09T18:16:14.226Z,80.36
2018-10-09T18:18:44.447Z,79.92
2018-10-09T18:21:15.253Z,80.58
2018-10-09T18:23:45.855Z,80.56
2018-10-09T18:26:16.144Z,81.39
2018-10-09T18:28:46.781Z,81.90
2018-10-09T18:31:17.802Z,82.96
2018-10-09T18:33:48.142Z,83.30
2018-10-09T18:36:20.095Z,84.03
2018-10-09T18:38:50.470Z,84.01
2018-10-09T18:41:29.475Z,86.07
2018-10-09T18:44:05.567Z,84.90
2018-10-09T18:46:35.934Z,84.85
2018-10-09T18:49:06.649Z,86.03
2018-10-09T18:51:37.466Z,85.51
2018-10-09T18:56:50.748Z,87.59
2018-10-09T18:59:21.024Z,88.06
2018-10-09T19:01:51.957Z,87.61
2018-10-09T19:04:23.776Z,87.41
2018-10-09T19:06:54.885Z,88.58
2018-10-09T19:09:25.303Z,88.00
2018-10-09T19:11:55.574Z,88.30
2018-10-09T19:14:25.771Z,88.89
2018-10-09T19:16:56.153Z,88.73
2018-10-09T19:19:29.575Z,88.58
2018-10-09T19:22:00.283Z,89.72
2018-10-09T19:24:30.761Z,90.53
2018-10-09T19:27:01.006Z,90.34
2018-10-09T19:29:31.324Z,90.22
2018-10-09T19:32:02.884Z,89.98
2018-10-09T19:34:33.584Z,90.18
2018-10-09T19:37:03.977Z,90.96
2018-10-09T19:39:40.353Z,90.56
2018-10-09T19:42:10.830Z,91.48
2018-10-09T19:44:41.558Z,91.52
2018-10-09T19:47:14.718Z,91.90
2018-10-09T19:49:47.144Z,91.45
2018-10-09T19:52:19.450Z,91.98
2018-10-09T19:54:50.069Z,91.54
2018-10-09T19:57:22.737Z,91.52
2018-10-09T19:59:56.009Z,92.05
2018-10-09T20:02:28.385Z,92.06
2018-10-09T20:05:00.420Z,92.27
2018-10-09T20:07:30.673Z,92.06
2018-10-09T20:10:02.014Z,92.79
2018-10-09T20:12:32.472Z,93.10
2018-10-09T20:15:05.941Z,93.15
2018-10-09T20:17:36.420Z,93.33
2018-10-09T20:20:06.632Z,93.49
2018-10-09T20:22:37.047Z,93.95
2018-10-09T20:25:07.210Z,93.62
2018-10-09T20:27:37.480Z,94.10
2018-10-09T20:30:07.816Z,93.53
2018-10-09T20:32:38.088Z,94.06
2018-10-09T20:35:08.411Z,94.00
2018-10-09T20:37:38.835Z,94.48
2018-10-09T20:40:09.074Z,94.60
2018-10-09T20:42:39.443Z,94.60
2018-10-09T20:45:10.005Z,95.14
2018-10-09T20:47:44.158Z,95.16
2018-10-09T20:52:58.820Z,95.24
2018-10-09T20:55:29.330Z,94.84
2018-10-09T20:57:59.892Z,95.03
2018-10-09T21:00:30.636Z,94.76
2018-10-09T21:03:01.004Z,95.00
2018-10-09T21:05:31.903Z,95.90
2018-10-09T21:08:02.385Z,95.90
2018-10-09T21:10:32.917Z,95.73
2018-10-09T21:13:04.043Z,95.41
2018-10-09T21:15:35.893Z,95.90
2018-10-09T21:18:06.565Z,94.97
2018-10-09T21:20:37.033Z,96.43
2018-10-09T21:23:07.721Z,96.50
2018-10-09T21:25:38.224Z,96.28
2018-10-09T21:28:08.871Z,96.14
2018-10-09T21:30:39.564Z,95.94
2018-10-09T21:33:19.896Z,96.28
2018-10-09T21:35:50.285Z,96.22
2018-10-09T21:38:21.321Z,96.40
2018-10-09T21:40:51.797Z,96.96
2018-10-09T21:43:22.193Z,96.56
2018-10-09T21:45:52.579Z,96.78
2018-10-09T21:48:26.870Z,97.69
2018-10-09T21:50:57.624Z,97.57
2018-10-09T21:53:28.267Z,97.83
2018-10-09T21:55:58.685Z,97.82
2018-10-09T21:58:31.602Z,98.07
2018-10-09T22:01:06.852Z,98.63
2018-10-09T22:03:37.792Z,98.17
2018-10-09T22:06:09.250Z,98.43
2018-10-09T22:08:44.677Z,98.40
2018-10-09T22:11:15.300Z,97.83
2018-10-09T22:13:46.096Z,97.89
2018-10-09T22:16:16.793Z,97.95
2018-10-09T22:18:47.450Z,97.52
2018-10-09T22:21:17.984Z,97.83
2018-10-09T22:23:48.320Z,97.68
2018-10-09T22:26:21.265Z,97.09
2018-10-09T22:28:51.820Z,96.72
2018-10-09T22:31:22.309Z,97.01
2018-10-09T22:33:52.868Z,96.90
2018-10-09T22:36:23.281Z,96.59
2018-10-09T22:38:53.798Z,97.12
2018-10-09T22:41:24.507Z,97.27
2018-10-09T22:43:55.001Z,97.91
2018-10-09T22:48:49.959Z,98.32
2018-10-09T22:51:20.399Z,98.33
2018-10-09T22:53:51.120Z,97.90
2018-10-09T22:56:21.650Z,97.83
2018-10-09T22:58:52.125Z,96.99
2018-10-09T23:01:22.796Z,96.99
2018-10-09T23:03:53.304Z,97.30
2018-10-09T23:06:23.849Z,98.02
2018-10-09T23:08:54.551Z,98.28
2018-10-09T23:11:24.840Z,98.22
2018-10-09T23:13:55.232Z,98.19
2018-10-09T23:16:25.483Z,97.98
2018-10-09T23:18:55.948Z,98.16
2018-10-09T23:21:26.310Z,97.71
2018-10-09T23:23:56.977Z,97.58
2018-10-09T23:26:27.354Z,97.46
2018-10-09T23:28:57.771Z,97.92
2018-10-09T23:31:28.066Z,98.09
2018-10-09T23:33:58.817Z,98.65
2018-10-09T23:36:29.270Z,99.06
2018-10-09T23:38:59.755Z,98.25
2018-10-09T23:41:30.258Z,98.10
2018-10-09T23:44:00.634Z,97.73
2018-10-09T23:46:31.009Z,98.11
2018-10-09T23:49:01.839Z,97.57
2018-10-09T23:51:32.336Z,97.95
2018-10-09T23:54:02.677Z,97.92
2018-10-09T23:56:33.067Z,98.09
2018-10-09T23:59:03.462Z,97.86
